Search for airport 
image banner adimage banner adimage banner ad
image banner ad

KTMT - Austin

Located in Austin, United States

ICAO - TMT, IATA -

Data provided by Airmate  

General information

Coordinates: N39°28'5" W117°11'51"
Elevation is 5735 feet MSL.
Magnetic variation is 16° East
View others Airports in Nevada

Operational data

Special qualification required
Current time UTC:
Current local time:
Weather
METAR: KTMT 131135Z AUTO 00000KT 10SM CLR 04/M04 A3007 RMK AO2 T00351038
View NOTAMs / SUP AIP / TFR affecting this airport [VIEW]
Communications frequencies: [VIEW]

Runways:

RWY identifierQFULength (ft)Width (ft)SurfaceLDA (ft)
0121°599975ASPH
19201°599975ASPH

Airport contact information

Address: Austin United States

Satellite view of KTMT